createdAt,value
2023-02-19T00:03:07.521Z,78.75
2023-02-19T00:08:07.483Z,78.79
2023-02-19T00:13:10.310Z,78.36
2023-02-19T00:18:07.518Z,78.17
2023-02-19T00:23:07.467Z,77.82
2023-02-19T00:28:07.461Z,77.62
2023-02-19T00:33:07.708Z,77.20
2023-02-19T00:38:07.376Z,76.89
2023-02-19T00:43:07.453Z,76.72
2023-02-19T00:48:07.510Z,76.46
2023-02-19T00:53:07.442Z,76.18
2023-02-19T00:58:07.828Z,75.92
2023-02-19T01:03:07.433Z,75.66
2023-02-19T01:08:07.447Z,75.40
2023-02-19T01:13:07.648Z,75.12
2023-02-19T01:18:07.802Z,74.89
2023-02-19T01:23:08.490Z,74.24
2023-02-19T01:28:08.300Z,74.12
2023-02-19T01:33:09.097Z,73.97
2023-02-19T01:38:07.421Z,73.96
2023-02-19T01:43:14.945Z,73.82
2023-02-19T01:48:12.441Z,74.18
2023-02-19T01:53:11.090Z,74.43
2023-02-19T01:58:08.942Z,74.58
2023-02-19T02:03:07.752Z,74.73
2023-02-19T02:08:17.843Z,74.97
2023-02-19T02:13:07.764Z,74.97
2023-02-19T02:18:15.957Z,74.75
2023-02-19T02:21:03.509Z,74.75
2023-02-19T02:23:15.757Z,74.82
2023-02-19T02:24:18.499Z,74.82
2023-02-19T02:28:22.421Z,74.83
2023-02-19T02:33:16.968Z,74.92
2023-02-19T02:38:11.938Z,74.97
2023-02-19T02:43:07.854Z,74.84
2023-02-19T02:48:16.871Z,75.18
2023-02-19T02:53:23.362Z,75.49
2023-02-19T02:58:08.516Z,75.39
2023-02-19T03:03:07.555Z,75.60
2023-02-19T03:08:12.245Z,75.60
2023-02-19T03:13:24.498Z,75.42
2023-02-19T03:18:21.143Z,75.68
2023-02-19T03:23:09.837Z,75.83
2023-02-19T03:28:10.200Z,75.99
2023-02-19T03:33:10.320Z,76.30
2023-02-19T03:38:11.285Z,76.25
2023-02-19T03:43:15.696Z,76.50
2023-02-19T03:48:23.916Z,76.67
2023-02-19T03:53:13.386Z,76.90
2023-02-19T03:58:12.210Z,76.91
2023-02-19T04:03:15.493Z,77.10
2023-02-19T04:08:12.226Z,77.29
2023-02-19T04:13:12.265Z,77.33
2023-02-19T04:18:11.593Z,77.43
2023-02-19T04:18:28.904Z,77.43
2023-02-19T04:23:08.019Z,77.39
2023-02-19T04:28:08.688Z,77.38
2023-02-19T04:33:07.474Z,77.61
2023-02-19T04:34:57.454Z,77.61
2023-02-19T04:38:07.222Z,77.91
2023-02-19T04:43:07.380Z,77.61
2023-02-19T04:48:07.970Z,77.83
2023-02-19T04:53:07.367Z,77.98
2023-02-19T04:58:07.199Z,78.06
2023-02-19T05:03:07.473Z,78.04
2023-02-19T05:08:07.284Z,78.16
2023-02-19T05:13:07.264Z,78.11
2023-02-19T05:18:07.628Z,78.38
2023-02-19T05:23:07.138Z,78.51
2023-02-19T05:28:16.240Z,78.74
2023-02-19T05:33:07.394Z,78.72
2023-02-19T05:38:07.411Z,78.60
2023-02-19T05:43:07.645Z,78.92
2023-02-19T05:46:40.707Z,78.92
2023-02-19T05:47:59.237Z,78.93
2023-02-19T05:48:07.763Z,78.93
2023-02-19T05:53:07.147Z,79.09
2023-02-19T05:54:07.568Z,79.09
2023-02-19T05:57:19.425Z,78.84
2023-02-19T05:58:07.216Z,78.84
2023-02-19T06:03:07.455Z,78.63
2023-02-19T06:08:07.341Z,78.64
2023-02-19T06:13:08.944Z,78.48
2023-02-19T06:18:07.144Z,78.44
2023-02-19T06:23:07.414Z,78.64
2023-02-19T06:28:09.035Z,78.37
2023-02-19T06:33:07.065Z,78.29
2023-02-19T06:38:07.616Z,78.20
2023-02-19T06:43:07.737Z,78.15
2023-02-19T06:46:53.399Z,77.88
2023-02-19T06:48:07.064Z,77.88
2023-02-19T06:53:08.083Z,77.39
2023-02-19T06:58:07.057Z,76.90
2023-02-19T07:03:08.585Z,76.74
2023-02-19T07:08:07.365Z,76.88
2023-02-19T07:13:07.182Z,76.92
2023-02-19T07:18:09.613Z,76.62
2023-02-19T07:23:07.250Z,76.81
2023-02-19T07:26:43.538Z,76.81
2023-02-19T07:28:07.096Z,76.63
2023-02-19T07:33:10.297Z,76.43
2023-02-19T07:37:00.908Z,76.23
2023-02-19T07:38:07.225Z,76.23
2023-02-19T07:39:45.493Z,76.23
2023-02-19T07:43:07.692Z,75.67
2023-02-19T07:44:06.212Z,75.67
2023-02-19T07:48:07.443Z,75.68
2023-02-19T07:53:07.182Z,75.49
2023-02-19T07:58:07.079Z,74.76
2023-02-19T08:02:32.585Z,75.29
2023-02-19T08:03:07.258Z,75.29
2023-02-19T08:04:18.609Z,75.29
2023-02-19T08:08:08.807Z,74.07
2023-02-19T08:13:20.699Z,73.38
2023-02-19T08:18:07.133Z,73.25
2023-02-19T08:23:07.996Z,73.19
2023-02-19T08:28:09.216Z,73.19
2023-02-19T08:33:07.574Z,72.91
2023-02-19T08:38:07.850Z,72.63
2023-02-19T08:41:20.915Z,72.63
2023-02-19T08:43:09.241Z,72.17
2023-02-19T08:48:08.065Z,72.41
2023-02-19T08:49:06.383Z,72.41
2023-02-19T08:53:07.278Z,72.13
2023-02-19T08:58:07.081Z,71.98
2023-02-19T09:02:17.180Z,72.32
2023-02-19T09:03:06.952Z,72.32
2023-02-19T09:08:07.850Z,72.03
2023-02-19T09:13:06.936Z,71.66
2023-02-19T09:18:07.057Z,71.49
2023-02-19T09:23:07.352Z,71.09
2023-02-19T09:25:28.512Z,71.09
2023-02-19T09:28:06.957Z,70.43
2023-02-19T09:31:14.634Z,70.43
2023-02-19T09:33:06.947Z,69.97
2023-02-19T09:33:35.063Z,69.97
2023-02-19T09:38:09.514Z,70.45
2023-02-19T09:40:20.603Z,70.45
2023-02-19T09:42:50.628Z,69.07
2023-02-19T09:43:14.192Z,69.07
2023-02-19T09:44:39.484Z,69.07
2023-02-19T09:48:10.702Z,69.21
2023-02-19T09:53:13.994Z,68.01
2023-02-19T09:58:15.817Z,66.80
2023-02-19T09:58:45.689Z,66.80
2023-02-19T10:01:51.349Z,52.01
2023-02-19T10:03:16.294Z,52.01
2023-02-19T10:08:12.812Z,47.75
2023-02-19T10:08:31.671Z,47.75
2023-02-19T10:10:44.073Z,47.75
2023-02-19T10:11:54.936Z,43.48
2023-02-19T10:13:17.839Z,43.48
2023-02-19T10:14:14.487Z,43.48
2023-02-19T10:18:09.471Z,46.17
2023-02-19T10:22:23.509Z,51.08
2023-02-19T10:23:09.770Z,51.08
2023-02-19T10:28:14.379Z,53.54
2023-02-19T10:33:10.662Z,55.11
2023-02-19T10:38:07.385Z,56.69
2023-02-19T10:43:27.205Z,55.02
2023-02-19T10:48:20.775Z,51.26
2023-02-19T10:53:20.250Z,51.83
2023-02-19T10:58:23.297Z,52.65
2023-02-19T11:03:18.948Z,54.13
2023-02-19T11:08:21.030Z,54.32
2023-02-19T11:13:15.175Z,55.23
2023-02-19T11:18:24.061Z,55.67
2023-02-19T11:23:15.458Z,56.05
2023-02-19T11:28:21.669Z,56.58
2023-02-19T11:33:21.183Z,56.00
2023-02-19T11:35:13.589Z,56.00
2023-02-19T11:38:09.352Z,57.17
2023-02-19T11:43:19.352Z,56.11
2023-02-19T11:47:54.362Z,56.31
2023-02-19T11:48:22.418Z,56.31
2023-02-19T11:53:15.773Z,55.94
2023-02-19T11:58:23.563Z,54.41
2023-02-19T12:03:18.898Z,53.36
2023-02-19T12:08:24.547Z,53.86
2023-02-19T12:13:14.732Z,54.12
2023-02-19T12:18:17.640Z,52.96
2023-02-19T12:23:26.685Z,53.67
2023-02-19T12:28:26.210Z,55.24
2023-02-19T12:33:27.022Z,56.20
2023-02-19T12:38:16.819Z,56.30
2023-02-19T12:43:11.153Z,57.09
2023-02-19T12:48:20.620Z,57.58
2023-02-19T12:53:17.974Z,56.94
2023-02-19T12:58:15.792Z,55.68
2023-02-19T13:03:19.813Z,55.75
2023-02-19T13:08:13.289Z,55.04
2023-02-19T13:13:14.574Z,54.58
2023-02-19T13:18:13.577Z,54.33
2023-02-19T13:23:23.842Z,53.68
2023-02-19T13:28:14.659Z,53.50
2023-02-19T13:33:22.256Z,53.13
2023-02-19T13:38:11.250Z,52.85
2023-02-19T13:38:52.854Z,52.85
2023-02-19T13:40:58.055Z,52.85
2023-02-19T13:43:22.019Z,53.30
2023-02-19T13:46:02.293Z,53.30
2023-02-19T13:48:25.221Z,53.81
2023-02-19T13:52:00.300Z,53.74
2023-02-19T13:53:26.571Z,53.74
2023-02-19T13:58:26.746Z,53.38
2023-02-19T14:03:25.956Z,53.30
2023-02-19T14:08:08.380Z,53.47
2023-02-19T14:12:02.770Z,53.76
2023-02-19T14:13:07.680Z,53.76
2023-02-19T14:18:26.669Z,53.80
2023-02-19T14:23:15.041Z,53.52
2023-02-19T14:23:21.519Z,53.52
2023-02-19T14:24:50.958Z,53.52
2023-02-19T14:28:16.591Z,53.06
2023-02-19T14:33:11.280Z,52.98
2023-02-19T14:38:15.781Z,52.93
2023-02-19T14:43:11.366Z,52.35
2023-02-19T14:45:54.025Z,52.35
2023-02-19T14:48:16.522Z,52.78
2023-02-19T14:50:56.478Z,52.78
2023-02-19T14:53:07.748Z,53.45
2023-02-19T14:54:56.828Z,53.45
2023-02-19T14:58:12.400Z,53.52
2023-02-19T14:58:32.274Z,53.52
2023-02-19T15:03:23.839Z,53.17
2023-02-19T15:08:11.066Z,53.13
2023-02-19T15:13:11.091Z,53.06
2023-02-19T15:18:07.188Z,53.27
2023-02-19T15:20:31.805Z,53.27
2023-02-19T15:23:07.447Z,53.76
2023-02-19T15:28:18.488Z,54.24
2023-02-19T15:31:34.202Z,54.24
2023-02-19T15:33:15.277Z,54.06
2023-02-19T15:34:54.987Z,54.06
2023-02-19T15:38:11.472Z,53.81
2023-02-19T15:43:28.367Z,54.36
2023-02-19T15:48:12.092Z,54.43
2023-02-19T15:53:11.980Z,54.38
2023-02-19T15:53:14.797Z,54.38
2023-02-19T15:53:20.555Z,54.38
2023-02-19T15:56:14.849Z,54.38
2023-02-19T15:58:13.667Z,54.54
2023-02-19T16:03:14.376Z,54.71
2023-02-19T16:08:17.450Z,54.90
2023-02-19T16:08:31.887Z,54.90
2023-02-19T16:13:07.509Z,55.43
2023-02-19T16:18:13.130Z,56.01
2023-02-19T16:23:12.837Z,56.25
2023-02-19T16:28:11.799Z,56.36
2023-02-19T16:32:13.870Z,56.28
2023-02-19T16:33:21.138Z,56.28
2023-02-19T16:34:18.033Z,56.28
2023-02-19T16:38:11.872Z,56.41
2023-02-19T16:43:16.154Z,56.48
2023-02-19T16:43:25.714Z,56.48
2023-02-19T16:48:07.004Z,56.40
2023-02-19T16:51:33.860Z,56.40
2023-02-19T16:53:14.237Z,56.39
2023-02-19T16:54:11.142Z,56.39
2023-02-19T16:55:25.925Z,56.39
2023-02-19T16:58:06.663Z,56.23
2023-02-19T16:58:20.739Z,56.23
2023-02-19T17:03:09.410Z,56.10
2023-02-19T17:08:22.603Z,55.94
2023-02-19T17:13:07.910Z,55.69
2023-02-19T17:18:08.341Z,55.28
2023-02-19T17:23:06.806Z,55.45
2023-02-19T17:24:30.937Z,55.45
2023-02-19T17:28:06.621Z,55.27
2023-02-19T17:33:06.657Z,55.52
2023-02-19T17:38:08.993Z,55.35
2023-02-19T17:43:07.212Z,54.95
2023-02-19T17:48:08.689Z,55.29
2023-02-19T17:48:55.021Z,55.29
2023-02-19T17:50:52.637Z,55.29
2023-02-19T17:53:07.215Z,55.42
2023-02-19T17:54:56.694Z,55.42
2023-02-19T17:58:06.587Z,54.68
2023-02-19T18:03:06.987Z,54.83
2023-02-19T18:04:50.006Z,54.83
2023-02-19T18:08:06.605Z,54.79
2023-02-19T18:13:06.692Z,54.56
2023-02-19T18:18:08.797Z,54.60
2023-02-19T18:23:06.549Z,54.77
2023-02-19T18:28:06.830Z,54.81
2023-02-19T18:33:09.793Z,54.24
2023-02-19T18:38:06.634Z,54.24
2023-02-19T18:41:32.041Z,54.24
2023-02-19T18:43:06.715Z,54.45
2023-02-19T18:46:32.257Z,54.45
2023-02-19T18:48:06.662Z,54.38
2023-02-19T18:53:06.570Z,54.12
2023-02-19T18:58:07.011Z,54.69
2023-02-19T19:03:06.854Z,54.53
2023-02-19T19:08:06.808Z,54.75
2023-02-19T19:09:23.036Z,54.75
2023-02-19T19:13:06.521Z,54.62
2023-02-19T19:13:25.603Z,54.62
2023-02-19T19:15:49.241Z,54.62
2023-02-19T19:18:07.779Z,54.38
2023-02-19T19:18:46.413Z,54.38
2023-02-19T19:21:14.266Z,54.38
2023-02-19T19:23:06.490Z,54.47
2023-02-19T19:24:06.463Z,54.47
2023-02-19T19:26:49.796Z,54.47
2023-02-19T19:28:03.607Z,54.83
2023-02-19T19:28:06.376Z,54.83
2023-02-19T19:30:34.521Z,54.83
2023-02-19T19:32:07.921Z,54.53
2023-02-19T19:33:03.098Z,54.53
2023-02-19T19:33:06.334Z,54.53
2023-02-19T19:35:14.668Z,54.53
2023-02-19T19:37:10.029Z,54.69
2023-02-19T19:38:06.522Z,54.69
2023-02-19T19:38:49.750Z,54.69
2023-02-19T19:40:46.224Z,54.69
2023-02-19T19:43:06.879Z,54.83
2023-02-19T19:44:12.771Z,54.83
2023-02-19T19:46:25.820Z,54.83
2023-02-19T19:48:06.470Z,54.85
2023-02-19T19:50:30.239Z,54.85
2023-02-19T19:52:15.688Z,55.11
2023-02-19T19:53:06.509Z,55.11
2023-02-19T19:54:29.324Z,55.11
2023-02-19T19:56:40.206Z,55.11
2023-02-19T19:58:06.572Z,55.16
2023-02-19T20:02:16.686Z,55.25
2023-02-19T20:03:06.430Z,55.25
2023-02-19T20:05:15.690Z,55.25
2023-02-19T20:08:06.620Z,55.71
2023-02-19T20:09:08.304Z,55.71
2023-02-19T20:11:06.137Z,55.71
2023-02-19T20:13:06.604Z,55.74
2023-02-19T20:13:48.343Z,55.74
2023-02-19T20:17:08.515Z,56.17
2023-02-19T20:18:06.444Z,56.17
2023-02-19T20:19:05.834Z,56.17
2023-02-19T20:20:36.692Z,56.17
2023-02-19T20:23:06.439Z,55.78
2023-02-19T20:25:50.549Z,55.78
2023-02-19T20:28:06.621Z,56.10
2023-02-19T20:28:45.880Z,56.10
2023-02-19T20:30:30.107Z,56.10
2023-02-19T20:33:06.531Z,56.16
2023-02-19T20:33:26.031Z,56.16
2023-02-19T20:35:16.068Z,56.16
2023-02-19T20:38:06.483Z,56.04
2023-02-19T20:41:30.680Z,56.04
2023-02-19T20:43:06.442Z,56.38
2023-02-19T20:43:07.776Z,56.38
2023-02-19T20:46:11.567Z,56.38
2023-02-19T20:48:06.616Z,56.49
2023-02-19T20:48:14.799Z,56.49
2023-02-19T20:53:06.874Z,56.62
2023-02-19T20:58:06.438Z,56.86
2023-02-19T21:01:11.091Z,56.86
2023-02-19T21:03:08.001Z,56.94
2023-02-19T21:05:50.657Z,56.94
2023-02-19T21:08:06.850Z,56.95
2023-02-19T21:11:33.465Z,56.95
2023-02-19T21:13:06.372Z,57.20
2023-02-19T21:18:06.909Z,57.34
2023-02-19T21:23:06.420Z,57.62
2023-02-19T21:28:08.662Z,57.75
2023-02-19T21:33:06.728Z,57.82
2023-02-19T21:38:06.486Z,57.91
2023-02-19T21:41:46.282Z,57.91
2023-02-19T21:43:06.362Z,57.87
2023-02-19T21:43:46.571Z,57.87
2023-02-19T21:48:06.830Z,58.21
2023-02-19T21:48:47.107Z,58.21
2023-02-19T21:51:46.922Z,58.21
2023-02-19T21:53:06.341Z,58.42
2023-02-19T21:55:58.366Z,58.42
2023-02-19T21:58:06.936Z,58.71
2023-02-19T21:58:20.503Z,58.71
2023-02-19T22:00:45.709Z,58.71
2023-02-19T22:03:13.386Z,59.25
2023-02-19T22:03:17.376Z,59.25
2023-02-19T22:06:01.166Z,59.25
2023-02-19T22:08:03.636Z,59.24
2023-02-19T22:08:07.094Z,59.24
2023-02-19T22:13:06.417Z,59.36
2023-02-19T22:18:09.093Z,59.41
2023-02-19T22:20:37.533Z,59.41
2023-02-19T22:23:06.467Z,59.53
2023-02-19T22:23:24.544Z,59.53
2023-02-19T22:27:05.555Z,59.74
2023-02-19T22:28:06.772Z,59.74
2023-02-19T22:32:17.084Z,59.94
2023-02-19T22:33:06.322Z,59.94
2023-02-19T22:37:45.669Z,59.95
2023-02-19T22:38:06.338Z,59.95
2023-02-19T22:40:24.565Z,59.95
2023-02-19T22:43:06.509Z,60.09
2023-02-19T22:43:46.309Z,60.09
2023-02-19T22:45:57.477Z,60.09
2023-02-19T22:48:06.285Z,60.14
2023-02-19T22:51:12.183Z,60.14
2023-02-19T22:53:06.391Z,60.24
2023-02-19T22:57:27.799Z,60.27
2023-02-19T22:58:06.640Z,60.27
2023-02-19T22:59:14.793Z,60.27
2023-02-19T23:00:42.916Z,60.27
2023-02-19T23:03:06.357Z,60.52
2023-02-19T23:04:25.408Z,60.52
2023-02-19T23:07:11.875Z,60.60
2023-02-19T23:08:06.793Z,60.60
2023-02-19T23:13:06.280Z,60.70
2023-02-19T23:16:07.610Z,60.70
2023-02-19T23:18:07.471Z,61.13
2023-02-19T23:18:48.013Z,61.13
2023-02-19T23:23:05.374Z,60.96
2023-02-19T23:23:06.128Z,60.96
2023-02-19T23:25:46.058Z,60.96
2023-02-19T23:28:06.481Z,61.18
2023-02-19T23:28:47.770Z,61.18
2023-02-19T23:32:46.692Z,61.34
2023-02-19T23:33:06.386Z,61.34
2023-02-19T23:37:15.322Z,61.91
2023-02-19T23:38:06.608Z,61.91
2023-02-19T23:39:28.592Z,61.91
2023-02-19T23:41:28.929Z,61.91
2023-02-19T23:43:06.645Z,64.01
2023-02-19T23:47:49.458Z,64.35
2023-02-19T23:48:06.789Z,64.35
2023-02-19T23:50:03.852Z,64.35
2023-02-19T23:52:45.608Z,63.94
2023-02-19T23:53:06.500Z,63.94
2023-02-19T23:53:30.531Z,63.94
2023-02-19T23:56:27.856Z,63.94
2023-02-19T23:58:06.357Z,64.54
2023-02-19T23:59:11.873Z,64.54
